Home > Products > Valid Products > MTR

000
SAUS41 KPHI 231857
MTRACY
METAR KACY 231854Z 10011KT 10SM SCT023 BKN037 BKN110 22/17 A3006 RMK
AO2 RAB1759E11 SLP180 P0000 T02220172





000
SAUS41 KPHI 231855
MTR12N
METAR K12N 231854Z AUTO 00000KT 21/16 A3011 RMK AO1 SLP192 T02060156





000
SAUS41 KPHI 231755
MTRACY
METAR KACY 231754Z 09011KT 10SM SCT024 BKN036 OVC110 22/17 A3007 RMK
AO2 SLP180 60000 T02170172 10239 20206 53002





000
SAUS41 KPHI 231755
MTR12N
METAR K12N 231754Z AUTO VRB03KT 20/16 A3011 RMK AO1 SLP193 60001
T02000156 10206 20178 53002





000
SAUS41 KPHI 231744
MTRACY
SPECI KACY 231742Z 07008KT 10SM BKN022 BKN034 OVC110 22/17 A3006 RMK
AO2 T02170172





000
SAUS41 KPHI 231656
MTRACY
METAR KACY 231654Z 08013KT 10SM FEW022 SCT120 23/17 A3006 RMK AO2
RAE17 SLP178 P0000 T02280172





000
SAUS41 KPHI 231655
MTR12N
METAR K12N 231654Z AUTO 00000KT 19/16 A3011 RMK AO1 SLP191 P0001
T01940161





000
SAUS41 KPHI 231557
MTRACY
METAR KACY 231554Z 07012KT 10SM -RA SCT024 BKN038 OVC090 22/18 A3006
RMK AO2 RAB53 SLP179 P0000 T02220178





000
SAUS41 KPHI 231555
MTR12N
METAR K12N 231554Z AUTO 00000KT 20/15 A3011 RMK AO1 SLP190 T02000150





000
SAUS41 KPHI 231551
MTRACY
SPECI KACY 231549Z 07010KT 10SM SCT026 BKN042 OVC095 22/17 A3006 RMK
AO2





000
SAUS41 KPHI 231541
MTRACY
SPECI KACY 231540Z 07011KT 10SM BKN024 BKN029 BKN075 22/17 A3006 RMK
AO2 T02220172





000
SAUS41 KPHI 231457
MTRACY
METAR KACY 231454Z 06011G18KT 10SM SCT022 BKN033 23/17 A3006 RMK AO2
SLP177 T02280172 53008





000
SAUS41 KPHI 231455
MTR12N
METAR K12N 231454Z AUTO 11003KT 20/14 A3011 RMK AO1 SLP190 T02000144
51006





000
SAUS41 KPHI 231356
MTRACY
METAR KACY 231354Z 09013KT 10SM SCT024 22/17 A3005 RMK AO2 SLP174
T02170167





000
SAUS41 KPHI 231355
MTR12N
METAR K12N 231354Z AUTO 00000KT 21/15 A3011 RMK AO1 SLP189 T02060150





000
SAUS41 KPHI 231335
MTRACY
SPECI KACY 231333Z 07010KT 10SM SCT024 BKN029 22/18 A3004 RMK AO2
T02220178





000
SAUS41 KPHI 231256
MTRACY
METAR KACY 231254Z 09009KT 10SM FEW033 22/18 A3004 RMK AO2 SLP171
T02170178





000
SAUS41 KPHI 231255
MTR12N
METAR K12N 231254Z AUTO VRB03KT 20/16 A3010 RMK AO1 SLP186 T02000161





000
SAUS41 KPHI 231155
MTRACY
METAR KACY 231154Z 08008KT 10SM FEW030 21/18 A3003 RMK AO2 SLP169
T02110183 10211 20167 53010





000
SAUS41 KPHI 231155
MTR12N
METAR K12N 231154Z AUTO 00000KT 18/17 A3009 RMK AO1 SLP184 T01780167
10183 20172 51011





000
SAUS41 KPHI 231133
MTRACY
SPECI KACY 231130Z 08005KT 10SM BKN031 19/18 A3003 RMK AO2 T01940183





000
SAUS41 KPHI 231123
MTRACY
SPECI KACY 231122Z 02003KT 10SM BKN029 19/18 A3003 RMK AO2 T01890178
$





000
SAUS41 KPHI 231115
MTRACY
SPECI KACY 231112Z 01003KT 10SM FEW022 OVC031 18/18 A3003 RMK AO2
T01830178 $





000
SAUS41 KPHI 231056
MTRACY
METAR KACY 231054Z AUTO 04004KT 10SM SCT023 BKN029 18/18 A3002 RMK
AO2 SLP165 T01780178 TSNO $





000
SAUS41 KPHI 231055
MTR12N
METAR K12N 231054Z AUTO 07004KT 17/16 A3009 RMK AO1 SLP183 T01720161





000
SAUS41 KPHI 231031
MTRACY
SPECI KACY 231030Z AUTO 02005KT 10SM FEW023 SCT029 17/17 A3001 RMK
AO2 T01720167 TSNO $





000
SAUS41 KPHI 230957
MTRACY
METAR KACY 230954Z AUTO 35004KT 10SM SCT021 BKN028 OVC100 18/17
A3001 RMK AO2 SLP161 T01780167 TSNO $





000
SAUS41 KPHI 230955
MTR12N
METAR K12N 230954Z AUTO 04004KT 17/16 A3007 RMK AO1 SLP178 T01720161





000
SAUS41 KPHI 230948
MTRACY
SPECI KACY 230947Z AUTO 33003KT 10SM SCT021 BKN028 BKN100 17/17
A3001 RMK AO2 T01720167 TSNO $





000
SAUS41 KPHI 230855
MTRACY
METAR KACY 230854Z AUTO 34004KT 10SM CLR 17/17 A3000 RMK AO2 SLP159
T01720167 55001 TSNO $





000
SAUS41 KPHI 230855
MTR12N
METAR K12N 230854Z AUTO 00000KT 17/16 A3006 RMK AO1 SLP173 T01720161
55003





000
SAUS41 KPHI 230756
MTRACY
METAR KACY 230754Z AUTO 00000KT 10SM SCT028 SCT033 18/17 A3000 RMK
AO2 SLP157 T01780172 TSNO $





000
SAUS41 KPHI 230755
MTR12N
METAR K12N 230754Z AUTO 00000KT 18/16 A3005 RMK AO1 SLP173 T01780161





000
SAUS41 KPHI 230656
MTRACY
METAR KACY 230654Z 00000KT 10SM CLR 17/16 A3000 RMK AO2 SLP158
T01720161 $





000
SAUS41 KPHI 230655
MTR12N
METAR K12N 230654Z AUTO 00000KT 17/16 A3005 RMK AO1 SLP172 T01720156





000
SAUS41 KPHI 230555
MTR12N
METAR K12N 230554Z AUTO 00000KT 18/16 A3006 RMK AO1 SLP176 T01780161
10200 20172 50002





000
SAUS41 KPHI 230555
MTRACY
METAR KACY 230554Z 00000KT 10SM CLR 18/17 A3000 RMK AO2 SLP160
T01780167 10200 20172 58006 $





000
SAUS41 KPHI 230455
MTRACY
METAR KACY 230454Z 03003KT 10SM FEW120 17/17 A3001 RMK AO2 SLP163
T01720167 402500172 $





000
SAUS41 KPHI 230455
MTR12N
METAR K12N 230454Z AUTO 00000KT 17/16 A3007 RMK AO1 SLP178 T01720161
402220172





000
SAUS41 KPHI 230355
MTRACY
METAR KACY 230354Z 03005KT 10SM FEW120 18/17 A3002 RMK AO2 SLP165
T01780167 $





000
SAUS41 KPHI 230355
MTR12N
METAR K12N 230354Z AUTO 00000KT 19/16 A3007 RMK AO1 SLP177 T01940156





000
SAUS41 KPHI 230257
MTRACY
METAR KACY 230254Z 03005KT 10SM SCT070 18/17 A3002 RMK AO2 SLP166
T01780167 50004 $





000
SAUS41 KPHI 230255
MTR12N
METAR K12N 230254Z AUTO 05003KT 19/16 A3006 RMK AO1 SLP174 T01940161
50003





000
SAUS41 KPHI 230155
MTR12N
METAR K12N 230154Z AUTO 00000KT 19/17 A3007 RMK AO1 SLP178 T01940167





000
SAUS41 KPHI 230155
MTRACY
METAR KACY 230154Z 01005KT 10SM CLR 18/16 A3002 RMK AO2 SLP166
T01780161 $





000
SAUS41 KPHI 230057
MTRACY
METAR KACY 230054Z 05003KT 10SM CLR 19/17 A3002 RMK AO2 SLP164
T01890167 $





000
SAUS41 KPHI 230055
MTR12N
METAR K12N 230054Z AUTO 00000KT 19/17 A3007 RMK AO1 SLP177 T01940167





000
SAUS41 KPHI 222355
MTRACY
METAR KACY 222354Z 07004KT 10SM CLR 20/17 A3001 RMK AO2 SLP161
T02000172 10250 20200 51007





000
SAUS41 KPHI 222355
MTR12N
METAR K12N 222354Z AUTO 00000KT 20/17 A3005 RMK AO1 SLP171 T02000167
10217 20200 53006





000
SAUS41 KPHI 222256
MTRACY
METAR KACY 222254Z 07009KT 10SM CLR 22/17 A3001 RMK AO2 SLP160
T02220172





000
SAUS41 KPHI 222255
MTR12N
METAR K12N 222254Z AUTO 00000KT 22/18 A3003 RMK AO1 SLP163 T02170178





000
SAUS41 KPHI 222155
MTRACY
METAR KACY 222154Z 06010G16KT 10SM BKN031 23/18 A3000 RMK AO2 SLP156
T02280178





000
SAUS41 KPHI 222155
MTR12N
METAR K12N 222154Z AUTO 00000KT 22/18 A3004 RMK AO1 SLP166 T02170178





000
SAUS41 KPHI 222056
MTRACY
METAR KACY 222054Z 06007KT 10SM SCT031 23/18 A2999 RMK AO2 SLP154
T02280183 56006





000
SAUS41 KPHI 222055
MTR12N
METAR K12N 222054Z AUTO 00000KT 21/18 A3003 RMK AO1 SLP164 T02110178
55004





000
SAUS41 KPHI 222031
MTRACY
SPECI KACY 222028Z 07007KT 10SM FEW028 BKN040 23/18 A2999 RMK AO2
T02280178





000
SAUS41 KPHI 221956
MTRACY
METAR KACY 221954Z 08008KT 10SM OVC024 23/18 A2999 RMK AO2 SLP155
T02330183





000
SAUS41 KPHI 221955
MTR12N
METAR K12N 221954Z AUTO 00000KT 21/17 A3003 RMK AO1 SLP164 T02110172





000
SAUS41 KPHI 221855
MTRACY
METAR KACY 221854Z 08012KT 10SM BKN023 OVC043 24/19 A2999 RMK AO2
SLP156 T02440189





000
SAUS41 KPHI 221855
MTR12N
METAR K12N 221854Z AUTO 16004KT 21/17 A3004 RMK AO1 SLP167 T02110172





000
SAUS41 KPHI 221805
MTRACY
SPECI KACY 221804Z 09010KT 10SM FEW024 OVC040 24/19 A3000 RMK AO2
T02390189





000
SAUS41 KPHI 221756
MTRACY
METAR KACY 221754Z 08009KT 10SM BKN024 OVC038 23/19 A3001 RMK AO2
SLP160 T02330189 10244 20211 56004





000
SAUS41 KPHI 221755
MTR12N
METAR K12N 221754Z AUTO 16005KT 21/18 A3004 RMK AO1 SLP169 T02060178
10222 20183 58006





000
SAUS41 KPHI 221655
MTRACY
METAR KACY 221654Z 06007KT 10SM OVC020 23/19 A3001 RMK AO2 SLP161
T02280194





000
SAUS41 KPHI 221655
MTR12N
METAR K12N 221654Z AUTO 00000KT 21/18 A3005 RMK AO1 SLP171 T02060178





000
SAUS41 KPHI 221557
MTRACY
METAR KACY 221554Z 08009KT 10SM BKN021 OVC031 23/20 A3001 RMK AO2
SLP160 T02280200





000
SAUS41 KPHI 221555
MTR12N
METAR K12N 221554Z AUTO 00000KT 20/18 A3006 RMK AO1 SLP175 T02000178





000
SAUS41 KPHI 221455
MTR12N
METAR K12N 221454Z AUTO 00000KT 19/18 A3006 RMK AO1 SLP175 T01940183
50008





000
SAUS41 KPHI 221455
MTRACY
METAR KACY 221454Z 09008KT 10SM SCT019 BKN029 OVC034 24/19 A3002 RMK
AO2 SLP164 T02390194 51007





000
SAUS41 KPHI 221356
MTRACY
METAR KACY 221354Z 09008KT 10SM SCT014 OVC021 23/20 A3001 RMK AO2
SLP162 T02330200





000
SAUS41 KPHI 221355
MTR12N
METAR K12N 221354Z AUTO 00000KT 19/18 A3007 RMK AO1 SLP177 T01940178





000
SAUS41 KPHI 221344
MTRACY
SPECI KACY 221341Z 10009KT 10SM OVC014 23/21 A3001 RMK AO2 T02280206





000
SAUS41 KPHI 221332
MTRACY
SPECI KACY 221329Z 08006KT 10SM BKN015 23/21 A3001 RMK AO2 T02280206





000
SAUS41 KPHI 221317
MTRACY
SPECI KACY 221315Z 10007KT 10SM BKN013 23/21 A3000 RMK AO2 T02280206





000
SAUS41 KPHI 221255
MTR12N
METAR K12N 221254Z AUTO 00000KT 19/18 A3005 RMK AO1 SLP172 T01890178





000
SAUS41 KPHI 221255
MTRACY
METAR KACY 221254Z 09007KT 10SM SCT010 22/20 A3000 RMK AO2 SLP157
T02220200





000
SAUS41 KPHI 221213
MTRACY
SPECI KACY 221212Z 10007KT 10SM OVC007 22/21 A2999 RMK AO2 T02170206
$





000
SAUS41 KPHI 221157
MTRACY
METAR KACY 221154Z 11006KT 9SM OVC014 21/21 A2999 RMK AO2 SLP154
60085 70086 T02110206 10239 20194 53000 $





000
SAUS41 KPHI 221155
MTR12N
METAR K12N 221154Z AUTO 00000KT 18/17 A3004 RMK AO1 SLP167 60003
70198 T01830172 10183 20172 53007





000
SAUS41 KPHI 221135
MTRACY
SPECI KACY 221133Z 08005KT 7SM OVC011 21/21 A2999 RMK AO2 T02060206
$





000
SAUS41 KPHI 221117
MTRACY
SPECI KACY 221114Z 08005KT 6SM BR BKN009 20/20 A2998 RMK AO2 CIG
007V012 T02000200 $





000
SAUS41 KPHI 221056
MTRACY
METAR KACY 221054Z 05003KT 8SM FEW009 19/19 A2998 RMK AO2 RAE08
SLP151 P0001 T01940194 $





000
SAUS41 KPHI 221055
MTR12N
METAR K12N 221054Z AUTO 00000KT 18/17 A3003 RMK AO1 SLP163 T01780172





000
SAUS41 KPHI 220956
MTRACY
METAR KACY 220954Z 13011KT 8SM -RA SCT065 BKN085 OVC100 20/20 A2996
RMK AO2 WSHFT 0909 SLP146 P0082 T02000200 $





000
SAUS41 KPHI 220955
MTR12N
METAR K12N 220954Z AUTO 00000KT 17/17 A3002 RMK AO1 SLP157 T01720167





000
SAUS41 KPHI 220934
MTRACY
SPECI KACY 220932Z 15010KT 4SM +RA BR SCT027 BKN070 OVC080 20/20
A2997 RMK AO2 WSHFT 0909 P0076 T02000200 $





000
SAUS41 KPHI 220927
MTRACY
SPECI KACY 220925Z 13012KT 2SM RA BR BKN022 OVC065 20/19 A2997 RMK
AO2 WSHFT 0909 P0075 T02000194 $





000
SAUS41 KPHI 220920
MTRACY
SPECI KACY 220919Z 11011KT 1SM +RA BR FEW006 BKN020 OVC060 20/19
A2997 RMK AO2 WSHFT 0859 P0069 T02000194 $





000
SAUS41 KPHI 220911
MTRACY
SPECI KACY 220909Z 06011KT 1SM +RA BR SCT006 OVC022 19/19 A2998 RMK
AO2 P0031 T01940194 $





000
SAUS41 KPHI 220903
MTRACY
SPECI KACY 220900Z 04011KT 1 3/4SM +RA BR BKN006 OVC022 19/19 A2998
RMK AO2 P0006 T01940194 $





000
SAUS41 KPHI 220855
MTRACY
METAR KACY 220854Z 34009KT 4SM RA BR BKN006 OVC028 20/19 A2999 RMK
AO2 RAB43 SLP154 P0002 60002 T02000194 51008 $





000
SAUS41 KPHI 220855
MTR12N
METAR K12N 220854Z AUTO 00000KT 18/18 A3002 RMK AO1 SLP157 60003
T01830178 50000





000
SAUS41 KPHI 220827
MTRACY
SPECI KACY 220825Z 07010KT 10SM BKN006 OVC026 20/19 A2998 RMK AO2
T02000194 $





000
SAUS41 KPHI 220755
MTR12N
METAR K12N 220754Z AUTO 00000KT 18/18 A3002 RMK AO1 SLP157 T01830178





000
SAUS41 KPHI 220755
MTRACY
METAR KACY 220754Z 06011KT 10SM FEW007 OVC019 20/19 A2998 RMK AO2
RAB37E52 SLP152 P0000 T02000194 $





000
SAUS41 KPHI 220657
MTRACY
METAR KACY 220654Z 12003KT 10SM OVC014 23/21 A2996 RMK AO2 SLP145
T02280206 $





000
SAUS41 KPHI 220655
MTR12N
METAR K12N 220654Z AUTO 00000KT 18/18 A3003 RMK AO1 SLP160 P0003
T01830178





000
SAUS41 KPHI 220653
MTRACY
SPECI KACY 220652Z VRB04KT 10SM OVC014 23/21 A2996 RMK AO2 $





000
SAUS41 KPHI 220616
MTRACY
SPECI KACY 220613Z 16006KT 10SM BKN015 OVC110 23/21 A2997 RMK AO2
T02280206 $





000
SAUS41 KPHI 220555
MTR12N
METAR K12N 220554Z AUTO 00000KT 18/18 A3002 RMK AO1 SLP157 60186
T01830178 10211 20178 55008





000
SAUS41 KPHI 220555
MTRACY
METAR KACY 220554Z 16005KT 10SM SCT019 OVC110 23/21 A2997 RMK AO2
RAB0458E17 SLP148 P0001 60001 T02280206 10233 20217 58018





000
SAUS41 KPHI 220513
MTRACY
SPECI KACY 220512Z 16007KT 10SM -RA SCT021 BKN065 OVC110 23/20 A2999
RMK AO2 RAB0458 P0001 T02280200





000
SAUS41 KPHI 220505
MTRACY
SPECI KACY 220502Z 17006KT 10SM -RA BKN021 BKN038 OVC120 23/20 A2999
RMK AO2 RAB0458 P0000 T02280200





000
SAUS41 KPHI 220455
MTRACY
METAR KACY 220454Z 17006KT 10SM SCT022 BKN037 OVC045 23/20 A2999 RMK
AO2 SLP156 T02330200 402720161





000
SAUS41 KPHI 220455
MTR12N
METAR K12N 220454Z AUTO 00000KT 18/18 A3001 RMK AO1 SLP157 T01830178
402830178





000
SAUS41 KPHI 220355
MTR12N
METAR K12N 220354Z AUTO VRB03KT 18/18 A3003 RMK AO1 SLP160 P0085
T01830178





000
SAUS41 KPHI 220355
MTRACY
METAR KACY 220354Z 16006KT 10SM FEW036 23/19 A3001 RMK AO2 SLP161
T02280194





000
SAUS41 KPHI 220257
MTRACY
METAR KACY 220254Z 17006KT 10SM SCT015 BKN037 22/19 A3002 RMK AO2
SLP166 T02220194 51003





000
SAUS41 KPHI 220255
MTR12N
METAR K12N 220254Z AUTO 00000KT 19/18 A3004 RMK AO1 SLP166 P0008
60101 T01890178 51010





000
SAUS41 KPHI 220156
MTRACY
METAR KACY 220154Z 16005KT 10SM CLR 23/19 A3002 RMK AO2 SLP165
T02280194





000
SAUS41 KPHI 220155
MTR12N
METAR K12N 220154Z AUTO 00000KT 19/18 A3002 RMK AO1 SLP159 P0064
T01890183





000
SAUS41 KPHI 220055
MTRACY
METAR KACY 220054Z 18006KT 10SM CLR 23/19 A3002 RMK AO2 SLP164
T02280194





000
SAUS41 KPHI 220055
MTR12N
METAR K12N 220054Z AUTO 00000KT 19/18 A3004 RMK AO1 SLP168 P0029
T01890183





000
SAUS41 KPHI 212355
MTR12N
METAR K12N 212354Z AUTO 00000KT 21/18 A3001 RMK AO1 SLP157 P0009
60009 T02110183 10283 20211 53004





000
SAUS41 KPHI 212355
MTRACY
METAR KACY 212354Z 16007KT 10SM CLR 23/18 A3001 RMK AO2 SLP163
T02280183 10272 20228 58004





000
SAUS41 KPHI 212255
MTR12N
METAR K12N 212254Z AUTO VRB03KT 25/18 A3000 RMK AO1 SLP150 T02500183





000
SAUS41 KPHI 212255
MTRACY
METAR KACY 212254Z 17006KT 10SM CLR 23/17 A3003 RMK AO2 SLP167
T02330172





000
SAUS41 KPHI 212155
MTR12N
METAR K12N 212154Z AUTO 21007KT 150V250 27/16 A3001 RMK AO1 SLP153
T02670156





000
SAUS41 KPHI 212155
MTRACY
METAR KACY 212154Z 16009KT 10SM CLR 24/17 A3002 RMK AO2 SLP166
T02390172





000
SAUS41 KPHI 212055
MTR12N
METAR K12N 212054Z AUTO 22005KT 28/16 A3000 RMK AO1 SLP149 T02780156
56015





000
SAUS41 KPHI 212055
MTRACY
METAR KACY 212054Z 15009KT 10SM CLR 24/17 A3003 RMK AO2 SLP167
T02440172 56006





000
SAUS41 KPHI 211956
MTRACY
METAR KACY 211954Z 17008KT 10SM CLR 26/18 A3003 RMK AO2 SLP168
T02560178





000
SAUS41 KPHI 211955
MTR12N
METAR K12N 211954Z AUTO 21008KT 170V240 27/17 A3001 RMK AO1 SLP156
T02720167





000
SAUS41 KPHI 211856
MTRACY
METAR KACY 211854Z 16011KT 10SM CLR 26/18 A3003 RMK AO2 SLP169
T02610178





000
SAUS41 KPHI 211855
MTR12N
METAR K12N 211854Z AUTO VRB03KT 26/18 A3002 RMK AO1 SLP159 T02610183





000
SAUS41 KPHI 211756
MTRACY
METAR KACY 211754Z 15007KT 10SM CLR 27/17 A3005 RMK AO2 SLP173
T02670172 10267 20211 57005





000
SAUS41 KPHI 211755
MTR12N
METAR K12N 211754Z AUTO 22008KT 26/18 A3004 RMK AO1 SLP165 T02560178
10256 20200 58007





000
SAUS41 KPHI 211656
MTRACY
METAR KACY 211654Z 15007KT 10SM CLR 26/17 A3005 RMK AO2 SLP176
T02610172





000
SAUS41 KPHI 211655
MTR12N
METAR K12N 211654Z AUTO VRB03KT 23/19 A3006 RMK AO1 SLP170 T02330189





000
SAUS41 KPHI 211555
MTR12N
METAR K12N 211554Z AUTO VRB03KT 26/17 A3005 RMK AO1 SLP169 T02560167





000
SAUS41 KPHI 211555
MTRACY
METAR KACY 211554Z 11008KT 10SM CLR 26/18 A3005 RMK AO2 SLP176
T02610178





000
SAUS41 KPHI 211455
MTRACY
METAR KACY 211454Z 16005KT 10SM CLR 26/17 A3006 RMK AO2 SLP179
T02610167 50000





000
SAUS41 KPHI 211455
MTR12N
METAR K12N 211454Z AUTO 24006KT 24/16 A3006 RMK AO1 SLP173 T02440156
58003





000
SAUS41 KPHI 211356
MTRACY
METAR KACY 211354Z VRB03KT 10SM FEW110 25/18 A3006 RMK AO2 SLP180
T02500183





000
SAUS41 KPHI 211355
MTR12N
METAR K12N 211354Z AUTO VRB04KT 23/16 A3006 RMK AO1 SLP173 T02330156





000
SAUS41 KPHI 211304 COR
MTRACY
METAR KACY 211254Z 00000KT 10SM CLR 24/19 A3007 RMK AO2 SLP181
T02390189





000
SAUS41 KPHI 211258
MTRACY
METAR KACY 211254Z 00000KT 10SM CLR 24/19 A3007 RMK AO2 SLP181
T02390189





000
SAUS41 KPHI 211258
MTR12N
METAR K12N 211254Z AUTO 00000KT 21/17 A3007 RMK AO1 SLP175 T02110172





000
SAUS41 KPHI 211156
MTRACY
METAR KACY 211154Z 00000KT 10SM CLR 21/19 A3006 RMK AO2 SLP179
T02110189 10211 20161 53014 $





000
SAUS41 KPHI 211155
MTR12N
METAR K12N 211154Z AUTO 22003KT 20/17 A3007 RMK AO1 SLP175 T02000167
10200 20178 53014





000
SAUS41 KPHI 211057
MTRACY
METAR KACY 211054Z 00000KT 4SM BR CLR 18/17 A3004 RMK AO2 SLP173
T01780167 $





000
SAUS41 KPHI 211055
MTR12N
METAR K12N 211054Z AUTO 00000KT 19/17 A3006 RMK AO1 SLP171 T01890167





000
SAUS41 KPHI 210957
MTRACY
METAR KACY 210954Z 00000KT 10SM CLR 18/17 A3003 RMK AO2 SLP167
T01780167 $





000
SAUS41 KPHI 210955
MTR12N
METAR K12N 210954Z AUTO 22003KT 19/16 A3003 RMK AO1 SLP161 T01890156





000
SAUS41 KPHI 210855
MTRACY
METAR KACY 210854Z 00000KT 10SM SCT075 18/17 A3002 RMK AO2 SLP165
T01830172 55003 $





000
SAUS41 KPHI 210855
MTR12N
METAR K12N 210854Z AUTO 00000KT 19/16 A3003 RMK AO1 SLP160 T01940156
56008





000
SAUS41 KPHI 210755
MTR12N
METAR K12N 210754Z AUTO 00000KT 19/17 A3004 RMK AO1 SLP164 T01890167





000
SAUS41 KPHI 210755
MTRACY
METAR KACY 210754Z 00000KT 10SM BKN070 BKN090 19/18 A3002 RMK AO2
SLP164 T01890178





000
SAUS41 KPHI 210655
MTR12N
METAR K12N 210654Z AUTO 00000KT 19/17 A3004 RMK AO1 SLP163 T01890167





000
SAUS41 KPHI 210655
MTRACY
METAR KACY 210654Z AUTO 34003KT 10SM OVC085 19/18 A3003 RMK AO2
SLP167 T01940178 TSNO





000
SAUS41 KPHI 210557
MTRACY
METAR KACY 210554Z AUTO 00000KT 10SM BKN070 OVC110 21/17 A3003 RMK
AO2 SLP168 T02060172 10217 20178 50002 TSNO





000
SAUS41 KPHI 210555
MTR12N
METAR K12N 210554Z AUTO 00000KT 19/16 A3005 RMK AO1 SLP168 T01940161
10244 20194 50008





000
SAUS41 KPHI 210457
MTRACY
METAR KACY 210454Z AUTO 00000KT 10SM SCT080 OVC100 19/17 A3005 RMK
AO2 SLP174 T01940172 402720172 TSNO





000
SAUS41 KPHI 210455
MTR12N
METAR K12N 210454Z AUTO 21003KT 21/15 A3005 RMK AO1 SLP168 T02060150
402940172





000
SAUS41 KPHI 210357
MTRACY
METAR KACY 210354Z AUTO 00000KT 10SM BKN110 18/16 A3004 RMK AO2
SLP171 T01830161 TSNO





000
SAUS41 KPHI 210355
MTR12N
METAR K12N 210354Z AUTO 00000KT 21/14 A3004 RMK AO1 SLP164 T02110144





000
SAUS41 KPHI 210256
MTRACY
METAR KACY 210254Z AUTO 25003KT 10SM CLR 21/17 A3002 RMK AO2 SLP165
T02060172 53002 TSNO





000
SAUS41 KPHI 210255
MTR12N
METAR K12N 210254Z AUTO 22003KT 22/14 A3003 RMK AO1 SLP160 T02170144
53007





000
SAUS41 KPHI 210155
MTRACY
METAR KACY 210154Z AUTO 10004KT 10SM CLR 19/17 A3000 RMK AO2 SLP157
T01940172 TSNO





000
SAUS41 KPHI 210155
MTR12N
METAR K12N 210154Z AUTO VRB03KT 21/16 A3002 RMK AO1 SLP156 T02110161





000
SAUS41 KPHI 210057
MTRACY
METAR KACY 210054Z AUTO 13005KT 10SM SCT085 21/17 A3002 RMK AO2
SLP164 T02060172 TSNO





000
SAUS41 KPHI 210055
MTR12N
METAR K12N 210054Z AUTO VRB03KT 23/15 A3001 RMK AO1 SLP153 T02330150





000
SAUS41 KPHI 202357
MTRACY
METAR KACY 202354Z AUTO 12005KT 10SM CLR 21/17 A3002 RMK AO2 SLP164
T02110172 10272 20211 51010 TSNO





000
SAUS41 KPHI 202355
MTR12N
METAR K12N 202354Z AUTO VRB04KT 24/16 A3000 RMK AO1 SLP152 T02440161
10294 20244 53007





000
SAUS41 KPHI 202256
MTRACY
METAR KACY 202254Z AUTO 13007KT 10SM OVC090 23/17 A3001 RMK AO2
SLP161 T02330172 TSNO





000
SAUS41 KPHI 202256
MTR12N
METAR K12N 202254Z AUTO VRB03KT 26/17 A2999 RMK AO1 SLP149 T02560172





000
SAUS41 KPHI 202156
MTRACY
METAR KACY 202154Z AUTO 13007KT 10SM CLR 24/17 A3001 RMK AO2 SLP161
T02390172 TSNO





000
SAUS41 KPHI 202155
MTR12N
METAR K12N 202154Z AUTO VRB03KT 28/17 A2998 RMK AO1 SLP145 T02780172





000
SAUS41 KPHI 202056
MTRACY
METAR KACY 202054Z 15009KT 10SM CLR 25/17 A2999 RMK AO2 SLP154
T02500167 56001





000
SAUS41 KPHI 202055
MTR12N
METAR K12N 202054Z AUTO 24008KT 28/17 A2998 RMK AO1 SLP145 T02780167
55002





    US Dept of Commerce
    National Oceanic and Atmospheric Administration
    National Weather Service
    1325 East West Highway
    Silver Spring, MD 20910
    Page Author: NWS Internet Services Team
Disclaimer
Information Quality
Credits
Glossary
Privacy Policy
Freedom of Information Act (FOIA)
About Us
Career Opportunities